sensor_id;sensor_type;location;lat;lon;timestamp;pressure;altitude;pressure_sealevel;temperature;humidity
10978;BME280;5542;48.272;10.794;2023-02-13T00:00:34;97555.16;;;0.46;100.00
10978;BME280;5542;48.272;10.794;2023-02-13T00:03:01;97542.59;;;0.31;100.00
10978;BME280;5542;48.272;10.794;2023-02-13T00:05:28;97541.16;;;0.38;100.00
10978;BME280;5542;48.272;10.794;2023-02-13T00:07:54;97545.88;;;0.44;100.00
10978;BME280;5542;48.272;10.794;2023-02-13T00:10:21;97542.09;;;0.37;100.00
10978;BME280;5542;48.272;10.794;2023-02-13T00:12:49;97539.06;;;0.43;100.00
10978;BME280;5542;48.272;10.794;2023-02-13T00:15:15;97530.22;;;0.45;100.00
10978;BME280;5542;48.272;10.794;2023-02-13T00:17:42;97541.88;;;0.40;100.00
10978;BME280;5542;48.272;10.794;2023-02-13T00:20:09;97533.88;;;0.43;100.00
10978;BME280;5542;48.272;10.794;2023-02-13T00:22:37;97531.97;;;0.45;100.00
10978;BME280;5542;48.272;10.794;2023-02-13T00:25:05;97530.44;;;0.42;100.00
10978;BME280;5542;48.272;10.794;2023-02-13T00:27:32;97526.56;;;0.48;100.00
10978;BME280;5542;48.272;10.794;2023-02-13T00:30:00;97524.59;;;0.29;100.00
10978;BME280;5542;48.272;10.794;2023-02-13T00:32:27;97524.47;;;0.31;100.00
10978;BME280;5542;48.272;10.794;2023-02-13T00:34:54;97523.88;;;0.38;100.00
10978;BME280;5542;48.272;10.794;2023-02-13T00:37:20;97534.94;;;0.40;100.00
10978;BME280;5542;48.272;10.794;2023-02-13T00:39:47;97531.84;;;0.58;100.00
10978;BME280;5542;48.272;10.794;2023-02-13T00:42:13;97529.25;;;0.58;100.00
10978;BME280;5542;48.272;10.794;2023-02-13T00:44:40;97530.53;;;0.52;100.00
10978;BME280;5542;48.272;10.794;2023-02-13T00:47:08;97539.88;;;0.43;100.00
10978;BME280;5542;48.272;10.794;2023-02-13T00:49:38;97545.88;;;0.44;100.00
10978;BME280;5542;48.272;10.794;2023-02-13T00:52:05;97535.53;;;0.44;100.00
10978;BME280;5542;48.272;10.794;2023-02-13T00:54:32;97530.78;;;0.49;100.00
10978;BME280;5542;48.272;10.794;2023-02-13T00:56:58;97545.97;;;0.54;100.00
10978;BME280;5542;48.272;10.794;2023-02-13T00:59:25;97545.97;;;0.54;100.00
10978;BME280;5542;48.272;10.794;2023-02-13T01:01:51;97534.34;;;0.48;100.00
10978;BME280;5542;48.272;10.794;2023-02-13T01:04:19;97532.91;;;0.55;100.00
10978;BME280;5542;48.272;10.794;2023-02-13T01:06:46;97534.06;;;0.62;100.00
10978;BME280;5542;48.272;10.794;2023-02-13T01:09:12;97527.88;;;0.74;100.00
10978;BME280;5542;48.272;10.794;2023-02-13T01:11:39;97524.25;;;0.66;100.00
10978;BME280;5542;48.272;10.794;2023-02-13T01:14:05;97526.97;;;0.64;100.00
10978;BME280;5542;48.272;10.794;2023-02-13T01:16:32;97521.88;;;0.74;100.00
10978;BME280;5542;48.272;10.794;2023-02-13T01:18:59;97532.53;;;0.60;100.00
10978;BME280;5542;48.272;10.794;2023-02-13T01:21:26;97529.94;;;0.60;100.00
10978;BME280;5542;48.272;10.794;2023-02-13T01:23:53;97525.25;;;0.54;100.00
10978;BME280;5542;48.272;10.794;2023-02-13T01:26:22;97531.94;;;0.67;100.00
10978;BME280;5542;48.272;10.794;2023-02-13T01:28:51;97532.53;;;0.60;100.00
10978;BME280;5542;48.272;10.794;2023-02-13T01:31:18;97530.66;;;0.50;100.00
10978;BME280;5542;48.272;10.794;2023-02-13T01:33:45;97539.72;;;0.56;100.00
10978;BME280;5542;48.272;10.794;2023-02-13T01:36:12;97528.91;;;0.51;100.00
10978;BME280;5542;48.272;10.794;2023-02-13T01:38:40;97533.03;;;0.54;100.00
10978;BME280;5542;48.272;10.794;2023-02-13T01:41:08;97533.50;;;0.47;100.00
10978;BME280;5542;48.272;10.794;2023-02-13T01:43:49;97534.78;;;0.42;100.00
10978;BME280;5542;48.272;10.794;2023-02-13T01:46:20;97531.38;;;0.41;100.00
10978;BME280;5542;48.272;10.794;2023-02-13T01:48:48;97534.25;;;0.38;100.00
10978;BME280;5542;48.272;10.794;2023-02-13T01:51:19;97520.47;;;0.27;100.00
10978;BME280;5542;48.272;10.794;2023-02-13T01:53:51;97523.44;;;0.22;100.00
10978;BME280;5542;48.272;10.794;2023-02-13T01:56:23;97535.75;;;0.41;100.00
10978;BME280;5542;48.272;10.794;2023-02-13T01:58:53;97530.56;;;0.41;100.00
10978;BME280;5542;48.272;10.794;2023-02-13T02:01:22;97537.66;;;0.39;100.00
10978;BME280;5542;48.272;10.794;2023-02-13T02:03:53;97540.09;;;0.40;100.00
10978;BME280;5542;48.272;10.794;2023-02-13T02:06:25;97538.69;;;0.36;100.00
10978;BME280;5542;48.272;10.794;2023-02-13T02:08:56;97532.78;;;0.45;100.00
10978;BME280;5542;48.272;10.794;2023-02-13T02:11:29;97532.22;;;0.42;100.00
10978;BME280;5542;48.272;10.794;2023-02-13T02:13:57;97525.63;;;0.38;100.00
10978;BME280;5542;48.272;10.794;2023-02-13T02:16:25;97523.97;;;0.37;100.00
10978;BME280;5542;48.272;10.794;2023-02-13T02:18:52;97520.94;;;0.43;100.00
10978;BME280;5542;48.272;10.794;2023-02-13T02:21:52;97525.63;;;0.49;100.00
10978;BME280;5542;48.272;10.794;2023-02-13T02:24:38;97525.00;;;0.57;100.00
10978;BME280;5542;48.272;10.794;2023-02-13T02:27:40;97524.19;;;0.56;100.00
10978;BME280;5542;48.272;10.794;2023-02-13T02:30:27;97523.03;;;0.49;100.00
10978;BME280;5542;48.272;10.794;2023-02-13T02:33:07;97518.09;;;0.46;100.00
10978;BME280;5542;48.272;10.794;2023-02-13T02:35:44;97518.72;;;0.38;100.00
10978;BME280;5542;48.272;10.794;2023-02-13T02:38:21;97527.03;;;0.42;100.00
10978;BME280;5542;48.272;10.794;2023-02-13T02:40:58;97525.63;;;0.49;100.00
10978;BME280;5542;48.272;10.794;2023-02-13T02:43:41;97526.56;;;0.48;100.00
10978;BME280;5542;48.272;10.794;2023-02-13T02:46:13;97523.03;;;0.49;100.00
10978;BME280;5542;48.272;10.794;2023-02-13T02:48:48;97525.97;;;0.44;100.00
10978;BME280;5542;48.272;10.794;2023-02-13T02:51:40;97532.22;;;0.42;100.00
10978;BME280;5542;48.272;10.794;2023-02-13T02:54:16;97527.84;;;0.42;100.00
10978;BME280;5542;48.272;10.794;2023-02-13T02:57:09;97531.16;;;0.44;100.00
10978;BME280;5542;48.272;10.794;2023-02-13T02:59:39;97524.81;;;0.48;100.00
10978;BME280;5542;48.272;10.794;2023-02-13T03:02:24;97532.91;;;0.55;100.00
10978;BME280;5542;48.272;10.794;2023-02-13T03:05:16;97528.88;;;0.62;100.00
10978;BME280;5542;48.272;10.794;2023-02-13T03:08:03;97533.13;;;0.52;100.00
10978;BME280;5542;48.272;10.794;2023-02-13T03:10:33;97530.06;;;0.47;100.00
10978;BME280;5542;48.272;10.794;2023-02-13T03:13:33;97528.31;;;0.47;100.00
10978;BME280;5542;48.272;10.794;2023-02-13T03:16:03;97531.28;;;0.43;100.00
10978;BME280;5542;48.272;10.794;2023-02-13T03:18:51;97534.06;;;0.51;100.00
10978;BME280;5542;48.272;10.794;2023-02-13T03:21:45;97540.16;;;0.61;100.00
10978;BME280;5542;48.272;10.794;2023-02-13T03:24:37;97542.09;;;0.37;100.00
10978;BME280;5542;48.272;10.794;2023-02-13T03:27:08;97542.19;;;0.46;100.00
10978;BME280;5542;48.272;10.794;2023-02-13T03:29:43;97544.22;;;0.43;100.00
10978;BME280;5542;48.272;10.794;2023-02-13T03:32:36;97538.31;;;0.52;100.00
10978;BME280;5542;48.272;10.794;2023-02-13T03:35:18;97538.06;;;0.55;100.00
10978;BME280;5542;48.272;10.794;2023-02-13T03:38:13;97539.50;;;0.48;100.00
10978;BME280;5542;48.272;10.794;2023-02-13T03:40:47;97547.13;;;0.61;100.00
10978;BME280;5542;48.272;10.794;2023-02-13T03:43:35;97541.59;;;0.54;100.00
10978;BME280;5542;48.272;10.794;2023-02-13T03:46:06;97554.59;;;0.43;100.00
10978;BME280;5542;48.272;10.794;2023-02-13T03:48:35;97550.47;;;0.40;100.00
10978;BME280;5542;48.272;10.794;2023-02-13T03:51:23;97553.28;;;0.48;100.00
10978;BME280;5542;48.272;10.794;2023-02-13T03:53:56;97552.47;;;0.48;100.00
10978;BME280;5542;48.272;10.794;2023-02-13T03:56:25;97549.41;;;0.43;100.00
10978;BME280;5542;48.272;10.794;2023-02-13T03:59:17;97553.59;;;0.55;100.00
10978;BME280;5542;48.272;10.794;2023-02-13T04:01:52;97552.78;;;0.55;100.00
10978;BME280;5542;48.272;10.794;2023-02-13T04:04:24;97551.97;;;0.54;100.00
10978;BME280;5542;48.272;10.794;2023-02-13T04:06:56;97555.38;;;0.55;100.00
10978;BME280;5542;48.272;10.794;2023-02-13T04:09:26;97560.19;;;0.59;100.00
10978;BME280;5542;48.272;10.794;2023-02-13T04:11:58;97555.84;;;0.60;100.00
10978;BME280;5542;48.272;10.794;2023-02-13T04:14:33;97559.69;;;0.65;100.00
10978;BME280;5542;48.272;10.794;2023-02-13T04:17:04;97566.06;;;0.72;100.00
10978;BME280;5542;48.272;10.794;2023-02-13T04:19:31;97566.84;;;0.84;100.00
10978;BME280;5542;48.272;10.794;2023-02-13T04:22:00;97568.38;;;0.87;100.00
10978;BME280;5542;48.272;10.794;2023-02-13T04:24:29;97566.22;;;0.92;100.00
10978;BME280;5542;48.272;10.794;2023-02-13T04:26:55;97561.28;;;0.89;100.00
10978;BME280;5542;48.272;10.794;2023-02-13T04:29:24;97568.47;;;0.85;100.00
10978;BME280;5542;48.272;10.794;2023-02-13T04:31:51;97555.88;;;0.92;100.00
10978;BME280;5542;48.272;10.794;2023-02-13T04:34:18;97563.28;;;0.85;100.00
10978;BME280;5542;48.272;10.794;2023-02-13T04:36:44;97553.50;;;0.89;100.00
10978;BME280;5542;48.272;10.794;2023-02-13T04:39:11;97561.78;;;0.83;100.00
10978;BME280;5542;48.272;10.794;2023-02-13T04:41:39;97562.66;;;0.72;100.00
10978;BME280;5542;48.272;10.794;2023-02-13T04:44:06;97558.97;;;0.74;100.00
10978;BME280;5542;48.272;10.794;2023-02-13T04:46:32;97558.38;;;0.82;100.00
10978;BME280;5542;48.272;10.794;2023-02-13T04:48:59;97560.63;;;0.75;100.00
10978;BME280;5542;48.272;10.794;2023-02-13T04:51:25;97565.00;;;0.64;100.00
10978;BME280;5542;48.272;10.794;2023-02-13T04:53:52;97558.50;;;0.69;100.00
10978;BME280;5542;48.272;10.794;2023-02-13T04:56:18;97563.94;;;0.66;100.00
10978;BME280;5542;48.272;10.794;2023-02-13T04:58:46;97557.56;;;0.70;100.00
10978;BME280;5542;48.272;10.794;2023-02-13T05:01:14;97564.41;;;0.71;100.00
10978;BME280;5542;48.272;10.794;2023-02-13T05:03:41;97557.75;;;0.90;100.00
10978;BME280;5542;48.272;10.794;2023-02-13T05:06:08;97558.47;;;0.92;100.00
10978;BME280;5542;48.272;10.794;2023-02-13T05:08:34;97551.06;;;0.87;100.00
10978;BME280;5542;48.272;10.794;2023-02-13T05:11:01;97555.16;;;0.90;100.00
10978;BME280;5542;48.272;10.794;2023-02-13T05:13:27;97552.81;;;0.87;100.00
10978;BME280;5542;48.272;10.794;2023-02-13T05:15:55;97563.19;;;0.87;100.00
10978;BME280;5542;48.272;10.794;2023-02-13T05:18:22;97562.47;;;0.85;100.00
10978;BME280;5542;48.272;10.794;2023-02-13T05:20:48;97559.31;;;0.81;100.00
10978;BME280;5542;48.272;10.794;2023-02-13T05:23:35;97564.25;;;0.84;100.00
10978;BME280;5542;48.272;10.794;2023-02-13T05:26:01;97553.50;;;0.89;100.00
10978;BME280;5542;48.272;10.794;2023-02-13T05:28:28;97565.97;;;0.95;100.00
10978;BME280;5542;48.272;10.794;2023-02-13T05:31:13;97555.13;;;1.01;100.00
10978;BME280;5542;48.272;10.794;2023-02-13T05:33:41;97563.59;;;1.03;100.00
10978;BME280;5542;48.272;10.794;2023-02-13T05:36:07;97561.38;;;0.98;100.00
10978;BME280;5542;48.272;10.794;2023-02-13T05:38:34;97556.38;;;0.86;100.00
10978;BME280;5542;48.272;10.794;2023-02-13T05:41:00;97570.00;;;0.88;100.00
10978;BME280;5542;48.272;10.794;2023-02-13T05:43:27;97564.31;;;0.94;100.00
10978;BME280;5542;48.272;10.794;2023-02-13T05:46:00;97561.94;;;1.02;100.00
10978;BME280;5542;48.272;10.794;2023-02-13T05:48:29;97563.22;;;1.08;100.00
10978;BME280;5542;48.272;10.794;2023-02-13T05:50:56;97560.13;;;1.14;100.00
10978;BME280;5542;48.272;10.794;2023-02-13T05:53:22;97555.88;;;1.13;100.00
10978;BME280;5542;48.272;10.794;2023-02-13T05:55:49;97556.03;;;1.11;100.00
10978;BME280;5542;48.272;10.794;2023-02-13T05:58:16;97557.44;;;1.15;100.00
10978;BME280;5542;48.272;10.794;2023-02-13T06:00:43;97561.66;;;1.16;100.00
10978;BME280;5542;48.272;10.794;2023-02-13T06:03:10;97557.66;;;1.12;100.00
10978;BME280;5542;48.272;10.794;2023-02-13T06:05:37;97559.28;;;1.24;100.00
10978;BME280;5542;48.272;10.794;2023-02-13T06:08:04;97560.09;;;1.25;100.00
10978;BME280;5542;48.272;10.794;2023-02-13T06:10:31;97568.69;;;1.25;100.00
10978;BME280;5542;48.272;10.794;2023-02-13T06:12:57;97561.88;;;1.24;100.00
10978;BME280;5542;48.272;10.794;2023-02-13T06:15:24;97557.50;;;1.25;100.00
10978;BME280;5542;48.272;10.794;2023-02-13T06:17:50;97563.88;;;1.21;100.00
10978;BME280;5542;48.272;10.794;2023-02-13T06:20:17;97570.69;;;1.22;100.00
10978;BME280;5542;48.272;10.794;2023-02-13T06:22:47;97566.69;;;1.29;100.00
10978;BME280;5542;48.272;10.794;2023-02-13T06:25:14;97570.91;;;1.30;100.00
10978;BME280;5542;48.272;10.794;2023-02-13T06:27:41;97579.75;;;1.27;100.00
10978;BME280;5542;48.272;10.794;2023-02-13T06:30:08;97578.31;;;1.35;100.00
10978;BME280;5542;48.272;10.794;2023-02-13T06:32:35;97576.66;;;1.34;100.00
10978;BME280;5542;48.272;10.794;2023-02-13T06:35:01;97577.50;;;1.34;100.00
10978;BME280;5542;48.272;10.794;2023-02-13T06:37:28;97582.59;;;1.24;99.85
10978;BME280;5542;48.272;10.794;2023-02-13T06:39:56;97579.13;;;1.14;100.00
10978;BME280;5542;48.272;10.794;2023-02-13T06:42:23;97587.00;;;1.13;100.00
10978;BME280;5542;48.272;10.794;2023-02-13T06:44:49;97590.91;;;1.07;99.88
10978;BME280;5542;48.272;10.794;2023-02-13T06:47:16;97587.19;;;0.89;100.00
10978;BME280;5542;48.272;10.794;2023-02-13T06:49:42;97593.91;;;0.80;100.00
10978;BME280;5542;48.272;10.794;2023-02-13T06:52:09;97595.91;;;0.88;100.00
10978;BME280;5542;48.272;10.794;2023-02-13T06:54:35;97596.03;;;0.86;100.00
10978;BME280;5542;48.272;10.794;2023-02-13T06:57:03;97602.19;;;0.74;100.00
10978;BME280;5542;48.272;10.794;2023-02-13T06:59:30;97606.09;;;0.68;100.00
10978;BME280;5542;48.272;10.794;2023-02-13T07:01:57;97602.31;;;0.72;100.00
10978;BME280;5542;48.272;10.794;2023-02-13T07:04:23;97608.91;;;0.65;100.00
10978;BME280;5542;48.272;10.794;2023-02-13T07:06:50;97603.63;;;0.56;100.00
10978;BME280;5542;48.272;10.794;2023-02-13T07:09:16;97609.03;;;0.64;100.00
10978;BME280;5542;48.272;10.794;2023-02-13T07:11:43;97612.22;;;0.67;100.00
10978;BME280;5542;48.272;10.794;2023-02-13T07:14:11;97619.38;;;0.64;100.00
10978;BME280;5542;48.272;10.794;2023-02-13T07:16:37;97620.09;;;0.55;100.00
10978;BME280;5542;48.272;10.794;2023-02-13T07:19:04;97623.88;;;0.50;100.00
10978;BME280;5542;48.272;10.794;2023-02-13T07:21:30;97627.97;;;0.64;100.00
10978;BME280;5542;48.272;10.794;2023-02-13T07:23:57;97615.38;;;0.71;100.00
10978;BME280;5542;48.272;10.794;2023-02-13T07:26:23;97623.63;;;0.65;100.00
10978;BME280;5542;48.272;10.794;2023-02-13T07:28:51;97622.91;;;0.74;100.00
10978;BME280;5542;48.272;10.794;2023-02-13T07:31:19;97631.75;;;0.71;100.00
10978;BME280;5542;48.272;10.794;2023-02-13T07:33:47;97631.25;;;0.66;100.00
10978;BME280;5542;48.272;10.794;2023-02-13T07:36:14;97628.44;;;0.69;100.00
10978;BME280;5542;48.272;10.794;2023-02-13T07:38:41;97625.72;;;0.71;100.00
10978;BME280;5542;48.272;10.794;2023-02-13T07:41:07;97629.34;;;0.80;100.00
10978;BME280;5542;48.272;10.794;2023-02-13T07:43:34;97635.00;;;0.96;100.00
10978;BME280;5542;48.272;10.794;2023-02-13T07:46:01;97628.97;;;1.07;100.00
10978;BME280;5542;48.272;10.794;2023-02-13T07:48:29;97630.81;;;1.16;100.00
10978;BME280;5542;48.272;10.794;2023-02-13T07:50:59;97630.69;;;1.17;100.00
10978;BME280;5542;48.272;10.794;2023-02-13T07:53:25;97635.75;;;1.19;100.00
10978;BME280;5542;48.272;10.794;2023-02-13T07:55:52;97630.00;;;1.15;100.00
10978;BME280;5542;48.272;10.794;2023-02-13T07:58:19;97631.59;;;1.27;100.00
10978;BME280;5542;48.272;10.794;2023-02-13T08:00:45;97640.38;;;1.15;100.00
10978;BME280;5542;48.272;10.794;2023-02-13T08:03:12;97633.94;;;1.31;100.00
10978;BME280;5542;48.272;10.794;2023-02-13T08:05:40;97643.06;;;1.14;100.00
10978;BME280;5542;48.272;10.794;2023-02-13T08:08:06;97641.69;;;1.10;100.00
10978;BME280;5542;48.272;10.794;2023-02-13T08:10:33;97642.78;;;0.96;100.00
10978;BME280;5542;48.272;10.794;2023-02-13T08:13:17;97645.34;;;0.96;100.00
10978;BME280;5542;48.272;10.794;2023-02-13T08:15:44;97644.63;;;1.05;100.00
10978;BME280;5542;48.272;10.794;2023-02-13T08:18:11;97645.53;;;1.15;100.00
10978;BME280;5542;48.272;10.794;2023-02-13T08:20:38;97640.22;;;1.17;100.00
10978;BME280;5542;48.272;10.794;2023-02-13T08:23:08;97641.72;;;1.31;100.00
10978;BME280;5542;48.272;10.794;2023-02-13T08:25:36;97645.72;;;1.23;100.00
10978;BME280;5542;48.272;10.794;2023-02-13T08:28:03;97639.13;;;1.31;100.00
10978;BME280;5542;48.272;10.794;2023-02-13T08:30:30;97640.22;;;1.17;100.00
10978;BME280;5542;48.272;10.794;2023-02-13T08:32:57;97642.44;;;1.21;100.00
10978;BME280;5542;48.272;10.794;2023-02-13T08:35:23;97644.03;;;1.01;100.00
10978;BME280;5542;48.272;10.794;2023-02-13T08:37:54;97649.56;;;1.08;100.00
10978;BME280;5542;48.272;10.794;2023-02-13T08:40:22;97649.47;;;0.98;100.00
10978;BME280;5542;48.272;10.794;2023-02-13T08:42:48;97650.63;;;1.06;100.00
10978;BME280;5542;48.272;10.794;2023-02-13T08:45:15;97650.16;;;1.12;100.00
10978;BME280;5542;48.272;10.794;2023-02-13T08:47:42;97647.84;;;1.30;100.00
10978;BME280;5542;48.272;10.794;2023-02-13T08:50:09;97649.56;;;1.08;100.00
10978;BME280;5542;48.272;10.794;2023-02-13T08:52:35;97647.91;;;1.07;100.00
10978;BME280;5542;48.272;10.794;2023-02-13T08:55:02;97647.69;;;1.10;100.00
10978;BME280;5542;48.272;10.794;2023-02-13T08:57:30;97649.53;;;1.19;100.00
10978;BME280;5542;48.272;10.794;2023-02-13T08:59:57;97652.00;;;1.21;100.00
10978;BME280;5542;48.272;10.794;2023-02-13T09:02:23;97653.41;;;1.14;100.00
10978;BME280;5542;48.272;10.794;2023-02-13T09:04:50;97656.72;;;1.16;100.00
10978;BME280;5542;48.272;10.794;2023-02-13T09:07:16;97656.38;;;1.20;100.00
10978;BME280;5542;48.272;10.794;2023-02-13T09:09:43;97657.91;;;1.12;100.00
10978;BME280;5542;48.272;10.794;2023-02-13T09:12:09;97656.59;;;1.17;100.00
10978;BME280;5542;48.272;10.794;2023-02-13T09:14:39;97658.00;;;1.21;100.00
10978;BME280;5542;48.272;10.794;2023-02-13T09:17:05;97657.72;;;1.36;100.00
10978;BME280;5542;48.272;10.794;2023-02-13T09:19:32;97653.19;;;1.49;100.00
10978;BME280;5542;48.272;10.794;2023-02-13T09:21:58;97660.53;;;1.44;99.28
10978;BME280;5542;48.272;10.794;2023-02-13T09:24:25;97653.25;;;1.38;99.26
10978;BME280;5542;48.272;10.794;2023-02-13T09:26:52;97660.09;;;1.27;100.00
10978;BME280;5542;48.272;10.794;2023-02-13T09:29:18;97657.84;;;1.34;100.00
10978;BME280;5542;48.272;10.794;2023-02-13T09:31:46;97661.88;;;1.27;100.00
10978;BME280;5542;48.272;10.794;2023-02-13T09:34:13;97664.81;;;1.34;100.00
10978;BME280;5542;48.272;10.794;2023-02-13T09:36:39;97660.56;;;1.33;100.00
10978;BME280;5542;48.272;10.794;2023-02-13T09:39:06;97659.03;;;1.30;100.00
10978;BME280;5542;48.272;10.794;2023-02-13T09:41:35;97662.09;;;1.35;99.91
10978;BME280;5542;48.272;10.794;2023-02-13T09:44:06;97659.56;;;1.45;99.49
10978;BME280;5542;48.272;10.794;2023-02-13T09:47:00;97659.63;;;1.34;100.00
10978;BME280;5542;48.272;10.794;2023-02-13T09:49:31;97662.81;;;1.26;100.00
10978;BME280;5542;48.272;10.794;2023-02-13T09:51:59;97663.78;;;1.25;100.00
10978;BME280;5542;48.272;10.794;2023-02-13T09:54:26;97659.69;;;1.11;100.00
10978;BME280;5542;48.272;10.794;2023-02-13T09:56:58;97664.63;;;1.14;100.00
10978;BME280;5542;48.272;10.794;2023-02-13T09:59:40;97670.72;;;1.24;100.00
10978;BME280;5542;48.272;10.794;2023-02-13T10:02:22;97670.41;;;1.07;100.00
10978;BME280;5542;48.272;10.794;2023-02-13T10:05:00;97669.47;;;1.08;100.00
10978;BME280;5542;48.272;10.794;2023-02-13T10:07:36;97674.53;;;1.09;100.00
10978;BME280;5542;48.272;10.794;2023-02-13T10:10:13;97670.28;;;1.19;100.00
10978;BME280;5542;48.272;10.794;2023-02-13T10:12:52;97661.91;;;1.16;100.00
10978;BME280;5542;48.272;10.794;2023-02-13T10:15:27;97665.09;;;1.19;100.00
10978;BME280;5542;48.272;10.794;2023-02-13T10:18:00;97664.13;;;1.20;100.00
10978;BME280;5542;48.272;10.794;2023-02-13T10:20:31;97660.44;;;1.34;100.00
10978;BME280;5542;48.272;10.794;2023-02-13T10:23:09;97660.19;;;1.37;100.00
10978;BME280;5542;48.272;10.794;2023-02-13T10:25:43;97667.34;;;1.45;100.00
10978;BME280;5542;48.272;10.794;2023-02-13T10:28:14;97669.91;;;1.56;100.00
10978;BME280;5542;48.272;10.794;2023-02-13T10:30:48;97670.41;;;1.50;100.00
10978;BME280;5542;48.272;10.794;2023-02-13T10:33:19;97664.22;;;1.62;99.88
10978;BME280;5542;48.272;10.794;2023-02-13T10:35:52;97662.25;;;1.54;99.79
10978;BME280;5542;48.272;10.794;2023-02-13T10:38:21;97661.56;;;1.52;100.00
10978;BME280;5542;48.272;10.794;2023-02-13T10:41:04;97656.69;;;1.59;100.00
10978;BME280;5542;48.272;10.794;2023-02-13T10:43:37;97660.09;;;1.60;100.00
10978;BME280;5542;48.272;10.794;2023-02-13T10:46:12;97651.00;;;1.65;100.00
10978;BME280;5542;48.272;10.794;2023-02-13T10:48:58;97646.38;;;1.69;98.73
10978;BME280;5542;48.272;10.794;2023-02-13T10:51:32;97638.91;;;1.75;97.81
10978;BME280;5542;48.272;10.794;2023-02-13T10:54:19;97646.97;;;1.72;96.88
10978;BME280;5542;48.272;10.794;2023-02-13T10:56:50;97645.81;;;1.65;98.51
10978;BME280;5542;48.272;10.794;2023-02-13T10:59:37;97641.56;;;1.64;98.87
10978;BME280;5542;48.272;10.794;2023-02-13T11:02:20;97636.63;;;1.61;99.14
10978;BME280;5542;48.272;10.794;2023-02-13T11:04:51;97635.25;;;1.57;100.00
10978;BME280;5542;48.272;10.794;2023-02-13T11:07:20;97641.44;;;1.66;100.00
10978;BME280;5542;48.272;10.794;2023-02-13T11:09:51;97635.88;;;1.70;98.55
10978;BME280;5542;48.272;10.794;2023-02-13T11:12:23;97632.84;;;1.65;99.50
10978;BME280;5542;48.272;10.794;2023-02-13T11:14:54;97628.47;;;1.66;100.00
10978;BME280;5542;48.272;10.794;2023-02-13T11:17:22;97624.38;;;1.63;99.84
10978;BME280;5542;48.272;10.794;2023-02-13T11:19:53;97626.41;;;1.81;100.00
10978;BME280;5542;48.272;10.794;2023-02-13T11:22:31;97621.09;;;1.82;100.00
10978;BME280;5542;48.272;10.794;2023-02-13T11:25:01;97616.34;;;1.87;99.00
10978;BME280;5542;48.272;10.794;2023-02-13T11:27:32;97627.72;;;1.75;98.65
10978;BME280;5542;48.272;10.794;2023-02-13T11:30:03;97626.75;;;1.55;98.42
10978;BME280;5542;48.272;10.794;2023-02-13T11:32:31;97626.41;;;1.81;98.07
10978;BME280;5542;48.272;10.794;2023-02-13T11:35:25;97619.50;;;1.70;97.90
10978;BME280;5542;48.272;10.794;2023-02-13T11:38:11;97620.81;;;1.85;97.69
10978;BME280;5542;48.272;10.794;2023-02-13T11:40:40;97627.00;;;1.94;97.54
10978;BME280;5542;48.272;10.794;2023-02-13T11:43:17;97626.66;;;1.77;97.11
10978;BME280;5542;48.272;10.794;2023-02-13T11:45:45;97621.97;;;1.71;96.97
10978;BME280;5542;48.272;10.794;2023-02-13T11:48:20;97618.00;;;1.67;97.44
10978;BME280;5542;48.272;10.794;2023-02-13T11:50:52;97618.28;;;1.74;97.97
10978;BME280;5542;48.272;10.794;2023-02-13T11:53:22;97620.81;;;1.85;97.63
10978;BME280;5542;48.272;10.794;2023-02-13T11:56:01;97618.28;;;1.74;98.09
10978;BME280;5542;48.272;10.794;2023-02-13T11:58:29;97618.97;;;1.97;96.11
10978;BME280;5542;48.272;10.794;2023-02-13T12:01:08;97616.84;;;1.81;96.41
10978;BME280;5542;48.272;10.794;2023-02-13T12:03:35;97617.22;;;1.76;97.33
10978;BME280;5542;48.272;10.794;2023-02-13T12:06:11;97616.19;;;1.89;97.07
10978;BME280;5542;48.272;10.794;2023-02-13T12:08:39;97618.50;;;1.82;97.29
10978;BME280;5542;48.272;10.794;2023-02-13T12:11:16;97618.94;;;1.66;98.28
10978;BME280;5542;48.272;10.794;2023-02-13T12:13:46;97619.31;;;1.83;98.21
10978;BME280;5542;48.272;10.794;2023-02-13T12:16:22;97612.47;;;1.82;97.71
10978;BME280;5542;48.272;10.794;2023-02-13T12:18:53;97615.13;;;1.70;97.85
10978;BME280;5542;48.272;10.794;2023-02-13T12:21:38;97618.16;;;1.75;98.47
10978;BME280;5542;48.272;10.794;2023-02-13T12:24:16;97613.31;;;1.82;98.41
10978;BME280;5542;48.272;10.794;2023-02-13T12:26:48;97611.00;;;1.89;98.45
10978;BME280;5542;48.272;10.794;2023-02-13T12:29:42;97610.31;;;1.87;97.68
10978;BME280;5542;48.272;10.794;2023-02-13T12:32:17;97610.97;;;2.00;96.92
10978;BME280;5542;48.272;10.794;2023-02-13T12:35:00;97598.03;;;1.89;96.98
10978;BME280;5542;48.272;10.794;2023-02-13T12:37:59;97604.84;;;1.90;98.00
10978;BME280;5542;48.272;10.794;2023-02-13T12:40:37;97602.25;;;1.90;98.72
10978;BME280;5542;48.272;10.794;2023-02-13T12:43:21;97591.31;;;2.07;98.61
10978;BME280;5542;48.272;10.794;2023-02-13T12:45:56;97596.84;;;2.23;97.39
10978;BME280;5542;48.272;10.794;2023-02-13T12:48:33;97585.75;;;2.21;96.19
10978;BME280;5542;48.272;10.794;2023-02-13T12:51:07;97584.66;;;2.14;96.03
10978;BME280;5542;48.272;10.794;2023-02-13T12:53:56;97581.53;;;2.20;96.69
10978;BME280;5542;48.272;10.794;2023-02-13T12:56:54;97579.66;;;2.01;96.47
10978;BME280;5542;48.272;10.794;2023-02-13T12:59:32;97589.22;;;2.01;96.55
10978;BME280;5542;48.272;10.794;2023-02-13T13:02:32;97578.19;;;2.09;96.23
10978;BME280;5542;48.272;10.794;2023-02-13T13:05:13;97579.81;;;2.00;96.51
10978;BME280;5542;48.272;10.794;2023-02-13T13:07:52;97573.56;;;2.12;95.63
10978;BME280;5542;48.272;10.794;2023-02-13T13:10:41;97578.28;;;1.97;95.61
10978;BME280;5542;48.272;10.794;2023-02-13T13:13:19;97573.44;;;1.83;96.33
10978;BME280;5542;48.272;10.794;2023-02-13T13:15:52;97575.00;;;1.95;95.43
10978;BME280;5542;48.272;10.794;2023-02-13T13:18:31;97577.50;;;1.76;96.81
10978;BME280;5542;48.272;10.794;2023-02-13T13:21:11;97572.59;;;1.83;98.55
10978;BME280;5542;48.272;10.794;2023-02-13T13:23:45;97575.25;;;1.92;99.32
10978;BME280;5542;48.272;10.794;2023-02-13T13:26:20;97564.91;;;2.02;99.00